Time;durP1;ratioP1;P1;durP2;ratioP2;P2;SDS_P1;SDS_P2;PMS_P1;PMS_P2;Temp;Humidity;BMP_temperature;BMP_pressure;BME280_temperature;BME280_humidity;BME280_pressure;Samples;Min_cycle;Max_cycle;Signal;HPM_P1;HPM_P2
2022/08/04 00:00:39;;;;;;;5.30;2.35;;;;;;;17.78;70.02;96035.19;2041098;29;20038;-36
2022/08/04 00:01:44;;;;;;;7.78;2.47;;;;;;;17.77;69.74;96035.31;2040112;29;20436;-38
2022/08/04 00:03:06;;;;;;;5.28;2.40;;;;;;;17.76;69.76;96042.34;2033243;29;20047;-37
2022/08/04 00:04:29;;;;;;;6.28;2.50;;;;;;;17.74;70.15;96036.38;2038017;29;20059;-40
2022/08/04 00:05:57;;;;;;;4.53;2.30;;;;;;;17.71;70.12;96026.09;2042745;29;20039;-40
2022/08/04 00:07:07;;;;;;;5.50;2.50;;;;;;;17.70;70.62;96032.31;2039063;29;20043;-38
2022/08/04 00:08:16;;;;;;;3.90;2.60;;;;;;;17.68;70.03;96028.97;2033802;29;20055;-39
2022/08/04 00:09:30;;;;;;;8.60;2.75;;;;;;;17.65;69.93;96034.44;2041489;29;20044;-39
2022/08/04 00:10:33;;;;;;;8.70;2.70;;;;;;;17.62;69.64;96029.44;2040033;29;20039;-38
2022/08/04 00:11:35;;;;;;;5.30;2.20;;;;;;;17.61;70.47;96032.97;2040271;29;20048;-38
2022/08/04 00:12:40;;;;;;;7.03;2.53;;;;;;;17.61;69.97;96028.59;2032400;29;20446;-37
2022/08/04 00:13:44;;;;;;;5.10;2.10;;;;;;;17.59;69.63;96032.28;2032882;29;20044;-39
2022/08/04 00:14:48;;;;;;;7.43;2.90;;;;;;;17.57;70.09;96031.56;2032602;29;20462;-37
2022/08/04 00:15:53;;;;;;;5.05;2.55;;;;;;;17.53;69.78;96030.94;2040283;29;20058;-36
2022/08/04 00:16:54;;;;;;;6.18;2.25;;;;;;;17.53;69.92;96030.09;2040528;29;20035;-38
2022/08/04 00:18:01;;;;;;;5.10;2.67;;;;;;;17.52;70.72;96028.44;2040006;29;20059;-37
2022/08/04 00:19:05;;;;;;;3.60;2.28;;;;;;;17.49;71.13;96023.41;2024565;29;20056;-38
2022/08/04 00:20:07;;;;;;;7.95;2.80;;;;;;;17.48;70.68;96032.22;2025444;29;20479;-40
2022/08/04 00:21:11;;;;;;;5.93;2.17;;;;;;;17.46;70.66;96034.16;2039506;29;20060;-41
2022/08/04 00:22:12;;;;;;;6.25;2.70;;;;;;;17.45;71.87;96033.28;2031570;29;20068;-37
2022/08/04 00:23:13;;;;;;;5.85;2.72;;;;;;;17.42;71.28;96031.72;2032234;29;20044;-39
2022/08/04 00:24:15;;;;;;;4.03;2.25;;;;;;;17.39;71.24;96029.31;2024642;29;20048;-40
2022/08/04 00:25:16;;;;;;;5.78;2.55;;;;;;;17.39;72.57;96025.88;2031700;29;20060;-38
2022/08/04 00:26:18;;;;;;;3.97;2.50;;;;;;;17.36;72.24;96029.56;2032623;29;20525;-39
2022/08/04 00:27:19;;;;;;;5.07;2.58;;;;;;;17.35;72.50;96025.28;2040092;29;20058;-40
2022/08/04 00:28:20;;;;;;;4.72;2.40;;;;;;;17.35;72.32;96025.28;2032077;29;20054;-38
2022/08/04 00:29:21;;;;;;;7.18;2.80;;;;;;;17.34;72.61;96028.00;2032323;29;20130;-38
2022/08/04 00:30:23;;;;;;;6.60;2.47;;;;;;;17.31;73.67;96028.22;2032634;29;20056;-39
2022/08/04 00:31:24;;;;;;;6.53;2.60;;;;;;;17.30;73.49;96026.56;2039980;29;20052;-37
2022/08/04 00:32:26;;;;;;;4.78;2.60;;;;;;;17.25;72.59;96032.13;2039680;29;20047;-38
2022/08/04 00:33:27;;;;;;;7.00;2.72;;;;;;;17.24;73.18;96034.88;2039988;29;20040;-40
2022/08/04 00:34:30;;;;;;;4.10;2.60;;;;;;;17.23;73.55;96026.16;2039992;29;20142;-39
2022/08/04 00:35:32;;;;;;;5.22;2.45;;;;;;;17.21;73.51;96022.81;2032036;29;20055;-40
2022/08/04 00:36:33;;;;;;;4.82;2.83;;;;;;;17.21;74.52;96025.44;2040025;29;20052;-38
2022/08/04 00:37:36;;;;;;;6.30;2.63;;;;;;;17.21;74.88;96030.69;2032296;29;20431;-35
2022/08/04 00:38:40;;;;;;;5.40;2.42;;;;;;;17.21;73.88;96028.06;2032417;29;20079;-37
2022/08/04 00:39:41;;;;;;;5.72;2.83;;;;;;;17.18;74.49;96017.78;2040003;29;20156;-41
2022/08/04 00:40:49;;;;;;;5.18;2.60;;;;;;;17.17;74.73;96024.00;2031695;29;20060;-38
2022/08/04 00:42:04;;;;;;;9.38;2.95;;;;;;;17.14;74.32;96019.81;2033342;29;20044;-38
2022/08/04 00:43:11;;;;;;;6.65;2.70;;;;;;;17.12;73.69;96023.50;2026196;29;20053;-38
2022/08/04 00:44:22;;;;;;;5.45;2.63;;;;;;;17.11;74.60;96021.81;2033107;29;20044;-39
2022/08/04 00:45:26;;;;;;;5.25;2.58;;;;;;;17.10;73.78;96022.75;2039869;29;20044;-37
2022/08/04 00:46:41;;;;;;;5.93;2.35;;;;;;;17.08;73.26;96022.88;2024790;29;20047;-38
2022/08/04 00:48:07;;;;;;;7.97;3.10;;;;;;;17.05;73.77;96017.00;2020480;29;20049;-39
2022/08/04 00:49:22;;;;;;;4.68;2.60;;;;;;;17.04;73.67;96021.41;2032154;29;20452;-40
2022/08/04 00:50:24;;;;;;;4.38;2.65;;;;;;;17.03;73.98;96024.16;2041368;29;20509;-39
2022/08/04 00:51:27;;;;;;;5.20;2.55;;;;;;;17.01;73.75;96020.81;2039942;29;20040;-37
2022/08/04 00:53:01;;;;;;;6.05;2.90;;;;;;;16.98;73.53;96019.25;2032549;29;20043;-38
2022/08/04 00:54:31;;;;;;;5.05;2.75;;;;;;;16.97;73.66;96025.41;2041161;29;20070;-39
2022/08/04 00:56:04;;;;;;;7.45;2.65;;;;;;;16.93;74.01;96021.38;2039775;29;20074;-37
2022/08/04 00:57:18;;;;;;;6.50;2.78;;;;;;;16.90;74.53;96018.97;2043119;29;20054;-38
2022/08/04 00:58:40;;;;;;;6.47;2.85;;;;;;;16.90;75.40;96018.97;2048087;29;20122;-37
2022/08/04 00:59:55;;;;;;;9.32;2.50;;;;;;;16.87;74.77;96020.03;2039898;29;20043;-39
2022/08/04 01:01:01;;;;;;;5.22;2.88;;;;;;;16.87;74.04;96022.66;2028050;29;20056;-40
2022/08/04 01:02:10;;;;;;;9.10;2.78;;;;;;;16.90;75.04;96026.84;2033030;29;20056;-40
2022/08/04 01:03:13;;;;;;;;;;;;;;;16.90;74.96;96019.78;2041507;29;20110;-37
2022/08/04 01:04:33;;;;;;;6.88;2.55;;;;;;;16.93;74.26;96019.56;2040214;29;19915;-41
2022/08/04 01:05:57;;;;;;;10.70;2.95;;;;;;;16.97;74.39;96022.81;2028786;29;20048;-39
2022/08/04 01:07:09;;;;;;;5.93;2.80;;;;;;;16.95;74.38;96022.94;2038779;29;20043;-37
2022/08/04 01:08:37;;;;;;;4.43;2.60;;;;;;;16.94;73.23;96016.00;2041136;28;20552;-38
2022/08/04 01:10:03;;;;;;;6.40;2.85;;;;;;;16.93;74.47;96021.38;2035770;29;20491;-36
2022/08/04 01:11:43;;;;;;;6.10;2.90;;;;;;;16.89;73.86;96019.91;2037666;29;20114;-38
2022/08/04 01:12:58;;;;;;;5.10;2.70;;;;;;;16.87;74.47;96013.94;2044945;29;20050;-38
2022/08/04 01:14:26;;;;;;;3.22;2.25;;;;;;;16.84;74.26;96017.63;2045912;29;20046;-39
2022/08/04 01:15:47;;;;;;;11.02;2.78;;;;;;;16.82;74.35;96024.75;2032312;29;20046;-40
2022/08/04 01:16:51;;;;;;;5.95;2.80;;;;;;;16.82;74.81;96024.75;2029018;29;20044;-37
2022/08/04 01:18:00;;;;;;;4.80;2.58;;;;;;;16.82;74.81;96029.16;2032714;29;20056;-38
2022/08/04 01:19:01;;;;;;;6.20;2.42;;;;;;;16.82;75.34;96024.75;2040623;29;20545;-37
2022/08/04 01:20:06;;;;;;;4.72;2.72;;;;;;;16.80;75.58;96025.81;2039526;29;20047;-38
2022/08/04 01:21:35;;;;;;;5.85;2.95;;;;;;;16.79;75.41;96021.53;2032682;29;20056;-39
2022/08/04 01:23:02;;;;;;;4.97;3.13;;;;;;;16.74;75.41;96021.81;2043505;29;20047;-37
2022/08/04 01:24:25;;;;;;;4.65;2.90;;;;;;;16.70;75.77;96023.78;2039634;29;20043;-40
2022/08/04 01:25:53;;;;;;;6.15;2.97;;;;;;;16.67;76.07;96029.25;2035120;29;20035;-37
2022/08/04 01:27:10;;;;;;;6.32;2.90;;;;;;;16.67;75.86;96029.25;2035099;29;20052;-39
2022/08/04 01:28:29;;;;;;;4.53;3.05;;;;;;;16.66;76.14;96032.00;2027019;29;20055;-39
2022/08/04 01:29:36;;;;;;;;;;;;;;;16.62;76.36;96031.38;2039233;29;20044;-37
2022/08/04 01:30:37;;;;;;;5.53;2.55;;;;;;;16.62;75.88;96031.38;2047517;29;19914;-37
2022/08/04 01:31:59;;;;;;;7.55;2.47;;;;;;;16.63;75.84;96025.19;2024578;29;20125;-39
2022/08/04 01:33:02;;;;;;;10.48;3.20;;;;;;;16.65;75.17;96032.94;2033313;29;20058;-40
2022/08/04 01:34:04;;;;;;;4.80;3.03;;;;;;;16.65;75.61;96028.56;2033162;29;20078;-39
2022/08/04 01:35:27;;;;;;;4.82;2.70;;;;;;;16.69;75.40;96030.00;2026441;29;20132;-42
2022/08/04 01:36:28;;;;;;;7.00;2.83;;;;;;;16.70;75.51;96028.22;2031442;29;20039;-39
2022/08/04 01:37:34;;;;;;;8.38;3.20;;;;;;;16.75;75.10;96026.09;2026136;29;20052;-38
2022/08/04 01:38:38;;;;;;;5.47;2.97;;;;;;;16.78;75.01;96023.28;2026614;29;20037;-37
2022/08/04 01:39:50;;;;;;;6.22;3.38;;;;;;;16.86;74.41;96023.56;2033879;29;20048;-38
2022/08/04 01:40:53;;;;;;;6.05;2.95;;;;;;;16.87;74.48;96025.28;2025854;29;20056;-39
2022/08/04 01:41:54;;;;;;;4.93;2.80;;;;;;;16.87;74.94;96032.31;2026388;29;20127;-38
2022/08/04 01:42:56;;;;;;;5.75;2.92;;;;;;;16.86;75.39;96020.13;2025895;29;20549;-37
2022/08/04 01:43:57;;;;;;;6.72;2.80;;;;;;;16.84;75.37;96025.50;2033622;29;20442;-39
2022/08/04 01:45:02;;;;;;;6.03;3.00;;;;;;;16.84;75.77;96030.75;2010277;29;20528;-39
2022/08/04 01:46:03;;;;;;;6.53;3.08;;;;;;;16.81;75.45;96027.47;2027007;29;20064;-37
2022/08/04 01:47:06;;;;;;;6.03;3.03;;;;;;;16.81;74.52;96020.44;2041028;29;20062;-39
2022/08/04 01:48:07;;;;;;;6.03;2.95;;;;;;;16.77;75.73;96029.50;2026076;29;20539;-39
2022/08/04 01:49:08;;;;;;;4.20;2.78;;;;;;;16.75;76.00;96031.34;2033273;29;20051;-39
2022/08/04 01:50:12;;;;;;;5.22;3.20;;;;;;;16.72;75.41;96023.69;2041485;29;20055;-39
2022/08/04 01:51:13;;;;;;;4.38;3.20;;;;;;;16.71;76.01;96027.28;2026253;29;20067;-40
2022/08/04 01:52:16;;;;;;;6.00;2.80;;;;;;;16.68;76.25;96027.47;2025735;29;20044;-37
2022/08/04 01:53:17;;;;;;;5.88;2.83;;;;;;;16.68;75.61;96030.09;2026696;29;20415;-40
2022/08/04 01:54:18;;;;;;;6.63;3.25;;;;;;;16.67;75.90;96028.44;2010564;29;20076;-38
2022/08/04 01:55:19;;;;;;;5.55;2.80;;;;;;;16.66;75.26;96024.16;2018245;29;20052;-37
2022/08/04 01:56:21;;;;;;;6.68;3.03;;;;;;;16.65;75.91;96028.56;2033221;29;20051;-39
2022/08/04 01:57:22;;;;;;;7.68;2.85;;;;;;;16.66;75.71;96034.63;2018447;29;20442;-39
2022/08/04 01:58:23;;;;;;;6.40;3.10;;;;;;;16.66;75.95;96035.47;2017947;29;20446;-40
2022/08/04 01:59:24;;;;;;;6.50;3.30;;;;;;;16.65;76.13;96025.06;2033630;29;20429;-38
2022/08/04 02:00:27;;;;;;;4.53;3.03;;;;;;;16.65;76.27;96031.19;2025471;29;20434;-39
2022/08/04 02:01:28;;;;;;;5.75;3.10;;;;;;;16.64;76.15;96033.91;2018243;29;20045;-37
2022/08/04 02:02:29;;;;;;;4.68;3.05;;;;;;;16.64;76.82;96028.66;2033069;29;20052;-39
2022/08/04 02:03:31;;;;;;;4.20;2.80;;;;;;;16.64;76.18;96032.09;2041096;29;20067;-38
2022/08/04 02:04:34;;;;;;;6.93;2.97;;;;;;;16.62;77.34;96027.91;2033285;29;20044;-39
2022/08/04 02:05:35;;;;;;;9.52;3.30;;;;;;;16.59;77.32;96028.13;2025634;29;20052;-37
2022/08/04 02:06:45;;;;;;;5.05;3.03;;;;;;;16.56;77.17;96025.75;2032873;29;20044;-37
2022/08/04 02:08:12;;;;;;;6.28;3.22;;;;;;;16.55;76.88;96024.91;2026083;29;20055;-38
2022/08/04 02:09:37;;;;;;;8.80;3.10;;;;;;;16.49;77.46;96031.44;2033120;29;20048;-37
2022/08/04 02:11:00;;;;;;;5.72;3.45;;;;;;;16.47;77.50;96025.44;2036244;29;20445;-36
2022/08/04 02:12:04;;;;;;;7.65;3.10;;;;;;;16.47;76.85;96032.47;2032993;29;20056;-37
2022/08/04 02:13:08;;;;;;;5.55;3.00;;;;;;;16.47;76.83;96037.72;2041554;29;20051;-37
2022/08/04 02:14:44;;;;;;;5.63;3.22;;;;;;;16.47;76.74;96027.22;2040554;29;20043;-39
2022/08/04 02:16:07;;;;;;;7.70;3.28;;;;;;;16.45;77.35;96029.94;2037665;29;20048;-39
2022/08/04 02:17:11;;;;;;;7.60;3.50;;;;;;;16.47;76.92;96025.44;2032596;29;20052;-38
2022/08/04 02:18:19;;;;;;;7.40;3.25;;;;;;;16.47;77.92;96030.69;2033029;29;20048;-39
2022/08/04 02:19:52;;;;;;;8.57;3.55;;;;;;;16.45;77.25;96032.56;2033318;29;20052;-39
2022/08/04 02:20:57;;;;;;;7.47;3.10;;;;;;;16.46;77.35;96026.38;2029592;29;20052;-38
2022/08/04 02:22:07;;;;;;;10.10;3.38;;;;;;;16.47;76.89;96030.69;2025697;29;20059;-39
2022/08/04 02:23:13;;;;;;;5.18;2.97;;;;;;;16.45;76.92;96027.31;2026531;29;20059;-40
2022/08/04 02:24:15;;;;;;;7.18;3.30;;;;;;;16.40;77.79;96024.19;2033250;29;20065;-42
2022/08/04 02:25:19;;;;;;;11.30;3.40;;;;;;;16.40;77.57;96029.44;2033865;29;20054;-38
2022/08/04 02:26:20;;;;;;;7.38;3.83;;;;;;;16.39;77.75;96024.31;2041136;29;20047;-37
2022/08/04 02:27:28;;;;;;;6.35;3.08;;;;;;;16.37;77.41;96027.03;2040063;29;20063;-38
2022/08/04 02:28:34;;;;;;;7.70;3.88;;;;;;;16.35;77.29;96031.53;2025240;29;20048;-37
2022/08/04 02:29:45;;;;;;;5.90;3.47;;;;;;;16.33;77.86;96030.78;2027076;29;20442;-36
2022/08/04 02:31:13;;;;;;;5.13;3.08;;;;;;;16.29;77.57;96024.94;2040310;29;20059;-39
2022/08/04 02:32:20;;;;;;;6.88;3.10;;;;;;;16.28;77.41;96030.31;2048146;29;20047;-37
2022/08/04 02:33:27;;;;;;;4.75;2.97;;;;;;;16.25;77.19;96026.13;2046949;29;20058;-38
2022/08/04 02:34:36;;;;;;;5.32;3.20;;;;;;;16.25;77.62;96026.13;2032915;29;20048;-37
2022/08/04 02:35:37;;;;;;;;;;;;;;;16.22;77.59;96018.44;2034429;29;20044;-36
2022/08/04 02:36:39;;;;;;;8.07;3.20;;;;;;;16.23;77.52;96024.53;2032098;29;19915;-36
2022/08/04 02:37:46;;;;;;;10.10;3.00;;;;;;;16.23;77.88;96021.91;2025436;29;20040;-39
2022/08/04 02:38:54;;;;;;;8.30;3.08;;;;;;;16.26;77.64;96021.69;2025644;29;20048;-39
2022/08/04 02:39:55;;;;;;;4.72;3.25;;;;;;;16.27;77.13;96024.19;2011089;29;20045;-38
2022/08/04 02:40:57;;;;;;;8.00;3.55;;;;;;;16.28;77.97;96027.69;2025429;29;20060;-40
2022/08/04 02:41:58;;;;;;;5.80;3.25;;;;;;;16.27;78.02;96023.38;2032715;29;20040;-39
2022/08/04 02:42:59;;;;;;;5.90;3.28;;;;;;;16.24;77.73;96024.41;2024850;29;20044;-39
2022/08/04 02:44:02;;;;;;;6.50;3.60;;;;;;;16.23;77.75;96019.28;2017559;29;20067;-39
2022/08/04 02:45:04;;;;;;;5.18;3.63;;;;;;;16.21;78.00;96026.41;2010252;29;20133;-38
2022/08/04 02:46:05;;;;;;;6.85;3.35;;;;;;;16.18;78.24;96024.84;2010023;29;20056;-41
2022/08/04 02:47:06;;;;;;;6.28;3.30;;;;;;;16.17;78.95;96027.56;2025302;29;20053;-38
2022/08/04 02:48:08;;;;;;;6.15;3.20;;;;;;;16.15;80.39;96024.22;2032800;29;20047;-39
2022/08/04 02:49:09;;;;;;;5.15;3.33;;;;;;;16.12;80.27;96025.28;2025649;29;20045;-38
2022/08/04 02:50:10;;;;;;;5.68;3.40;;;;;;;16.13;80.77;96029.56;2057895;23;20931;-45
2022/08/04 02:51:12;;;;;;;7.43;3.17;;;;;;;16.09;80.37;96026.31;2054500;28;20098;-43
2022/08/04 02:52:14;;;;;;;6.88;3.63;;;;;;;16.07;81.38;96025.59;2056053;28;20057;-42
2022/08/04 02:53:15;;;;;;;6.47;3.17;;;;;;;16.07;81.13;96024.75;2048333;28;20046;-40
2022/08/04 02:54:17;;;;;;;8.00;3.75;;;;;;;16.05;81.41;96019.59;2041976;28;20047;-43
2022/08/04 02:55:18;;;;;;;6.00;3.90;;;;;;;16.04;81.78;96019.72;2049239;28;20047;-41
2022/08/04 02:56:20;;;;;;;7.32;4.03;;;;;;;16.05;80.76;96016.16;2033051;29;20585;-44
2022/08/04 02:57:24;;;;;;;7.07;4.03;;;;;;;16.05;80.56;96014.38;2040863;29;20054;-42
2022/08/04 02:58:25;;;;;;;7.45;3.75;;;;;;;16.04;80.52;96017.94;2033628;28;20044;-41
2022/08/04 02:59:26;;;;;;;6.93;3.40;;;;;;;16.04;80.85;96022.34;2040942;29;20514;-41
2022/08/04 03:00:28;;;;;;;6.78;3.70;;;;;;;16.02;80.48;96019.81;2040787;29;20051;-43
2022/08/04 03:01:29;;;;;;;4.70;3.00;;;;;;;15.97;80.90;96016.69;2048889;28;20047;-40
2022/08/04 03:02:39;;;;;;;6.70;3.53;;;;;;;15.92;81.03;96018.78;2047921;28;20047;-41
2022/08/04 03:03:52;;;;;;;7.30;4.20;;;;;;;15.91;81.91;96017.09;2041160;29;20047;-41
2022/08/04 03:04:57;;;;;;;7.57;3.28;;;;;;;15.86;83.75;96024.44;2050449;28;20541;-39
2022/08/04 03:06:38;;;;;;;7.47;3.45;;;;;;;15.84;84.37;96021.06;2049692;28;20047;-42
2022/08/04 03:07:47;;;;;;;5.47;3.20;;;;;;;15.84;84.43;96021.06;2045483;29;20050;-40
2022/08/04 03:09:22;;;;;;;5.63;3.80;;;;;;;15.85;85.04;96022.75;2042445;28;20062;-42
2022/08/04 03:10:46;;;;;;;4.82;3.60;;;;;;;15.83;83.36;96022.03;2056802;28;20035;-41
2022/08/04 03:12:09;;;;;;;6.95;3.22;;;;;;;15.81;83.19;96026.53;2051810;28;20459;-40
2022/08/04 03:13:49;;;;;;;7.68;3.55;;;;;;;15.79;83.21;96020.53;2051289;28;20056;-43
2022/08/04 03:14:58;;;;;;;8.57;4.07;;;;;;;15.77;82.72;96025.03;2047889;29;20051;-41
2022/08/04 03:16:08;;;;;;;6.72;3.45;;;;;;;15.75;82.24;96017.31;2047906;28;20126;-41
2022/08/04 03:17:15;;;;;;;6.70;3.50;;;;;;;15.76;82.21;96012.91;2049961;28;20070;-42
2022/08/04 03:18:41;;;;;;;6.25;3.78;;;;;;;15.75;82.68;96019.91;2056358;28;20566;-41
2022/08/04 03:19:42;;;;;;;8.13;3.33;;;;;;;15.70;83.32;96016.78;2056516;28;20155;-39
2022/08/04 03:21:08;;;;;;;5.88;3.40;;;;;;;15.70;82.55;96021.19;2048421;29;20188;-41
2022/08/04 03:22:17;;;;;;;8.32;3.50;;;;;;;15.67;82.35;96019.56;2035973;29;20059;-44
2022/08/04 03:23:58;;;;;;;8.52;3.90;;;;;;;15.65;82.51;96014.44;2045866;28;20054;-41
2022/08/04 03:25:13;;;;;;;6.25;3.70;;;;;;;15.63;82.82;96018.09;2051396;28;20054;-42
2022/08/04 03:26:42;;;;;;;8.02;3.65;;;;;;;15.60;83.23;96019.13;2056443;28;20050;-41
2022/08/04 03:27:59;;;;;;;6.82;3.75;;;;;;;15.57;83.18;96021.94;2040526;29;20043;-40
2022/08/04 03:29:28;;;;;;;6.82;3.70;;;;;;;15.58;83.48;96021.03;2042909;29;20054;-41
2022/08/04 03:31:03;;;;;;;7.32;4.03;;;;;;;15.56;84.09;96020.28;2040609;29;20095;-43
2022/08/04 03:32:29;;;;;;;10.23;4.10;;;;;;;15.53;84.62;96023.13;2047626;29;20054;-41
2022/08/04 03:33:57;;;;;;;8.55;4.05;;;;;;;15.48;84.56;96027.81;2059921;28;20507;-41
2022/08/04 03:35:15;;;;;;;7.97;4.40;;;;;;;15.48;84.92;96025.19;2052624;28;20058;-42
2022/08/04 03:36:35;;;;;;;7.22;3.80;;;;;;;15.42;85.34;96022.97;2035410;29;20534;-42
2022/08/04 03:38:14;;;;;;;6.63;4.13;;;;;;;15.39;85.11;96025.78;2044672;29;20039;-40
2022/08/04 03:39:37;;;;;;;8.18;4.13;;;;;;;15.34;85.52;96022.63;2048381;29;20046;-43
2022/08/04 03:40:48;;;;;;;5.15;3.92;;;;;;;15.34;85.35;96017.41;2056086;28;20524;-41
2022/08/04 03:42:13;;;;;;;7.70;4.28;;;;;;;15.31;86.18;96022.84;2047630;29;20051;-45
2022/08/04 03:43:25;;;;;;;7.30;4.13;;;;;;;15.29;85.81;96020.34;2050747;28;20051;-41
2022/08/04 03:44:46;;;;;;;6.15;3.92;;;;;;;15.26;86.38;96024.91;2054617;28;20050;-41
2022/08/04 03:46:27;;;;;;;7.40;4.10;;;;;;;15.24;86.80;96019.78;2048966;28;20047;-40
2022/08/04 03:47:36;;;;;;;10.00;4.28;;;;;;;15.24;86.61;96016.34;2040973;29;20532;-42
2022/08/04 03:48:57;;;;;;;6.25;4.05;;;;;;;15.20;87.03;96024.38;2041446;29;20048;-40
2022/08/04 03:50:04;;;;;;;6.55;4.30;;;;;;;15.20;86.81;96023.53;2054596;28;20058;-43
2022/08/04 03:53:17;;;;;;;8.25;4.32;;;;;;;15.17;86.81;96023.75;2039912;29;20082;-41
2022/08/04 03:54:38;;;;;;;7.82;3.78;;;;;;;15.15;87.54;96029.06;2061573;28;20080;-42
2022/08/04 03:55:59;;;;;;;6.97;3.72;;;;;;;15.14;87.24;96024.78;2053261;28;20051;-40
2022/08/04 03:57:16;;;;;;;7.20;4.03;;;;;;;15.16;87.60;96032.53;2046008;28;20047;-42
2022/08/04 03:58:42;;;;;;;7.60;4.10;;;;;;;15.13;87.46;96023.13;2048413;29;20095;-42
2022/08/04 03:59:51;;;;;;;6.00;4.40;;;;;;;15.13;87.26;96028.34;2051659;28;20528;-39
2022/08/04 04:01:19;;;;;;;6.65;4.20;;;;;;;15.13;87.40;96023.13;2041129;29;20055;-42
2022/08/04 04:02:27;;;;;;;5.57;3.85;;;;;;;15.16;87.42;96022.06;2047888;28;20660;-45
2022/08/04 04:04:08;;;;;;;12.23;4.28;;;;;;;15.15;87.13;96023.81;2048979;28;20409;-41
2022/08/04 04:05:31;;;;;;;7.30;3.72;;;;;;;15.16;87.67;96025.53;2053222;28;20046;-41
2022/08/04 04:06:52;;;;;;;5.82;4.15;;;;;;;15.15;87.20;96023.00;2043730;29;20062;-42
2022/08/04 04:08:28;;;;;;;5.55;4.00;;;;;;;15.13;87.04;96020.50;2056084;28;20038;-42
2022/08/04 04:09:39;;;;;;;6.47;4.60;;;;;;;15.13;87.49;96015.25;2047844;29;20050;-41
2022/08/04 04:11:01;;;;;;;7.30;4.13;;;;;;;15.16;87.18;96020.28;2063181;28;20046;-40
2022/08/04 04:12:09;;;;;;;6.60;4.30;;;;;;;15.17;87.00;96019.34;2061274;28;20121;-41
2022/08/04 04:13:21;;;;;;;7.25;4.32;;;;;;;15.18;87.19;96017.56;2056181;28;20047;-42
2022/08/04 04:14:43;;;;;;;12.02;4.78;;;;;;;15.17;87.66;96016.72;2048666;28;20054;-40
2022/08/04 04:15:59;;;;;;;8.68;4.40;;;;;;;15.19;87.44;96020.09;2046227;28;20055;-41
2022/08/04 04:17:28;;;;;;;9.98;4.50;;;;;;;15.19;87.53;96016.63;2058138;28;20051;-41
2022/08/04 04:18:49;;;;;;;6.70;4.25;;;;;;;15.19;87.07;96014.03;2060495;28;20051;-41
2022/08/04 04:20:13;;;;;;;10.25;4.35;;;;;;;15.19;87.58;96011.41;2063403;28;20046;-39
2022/08/04 04:21:26;;;;;;;9.65;4.10;;;;;;;15.21;87.07;96012.97;2055754;28;20050;-42
2022/08/04 04:22:56;;;;;;;7.68;4.18;;;;;;;15.22;87.12;96019.88;2056195;28;20049;-41
2022/08/04 04:24:11;;;;;;;8.38;3.78;;;;;;;15.25;87.14;96020.63;2055803;28;20062;-40
2022/08/04 04:25:51;;;;;;;7.82;4.45;;;;;;;15.29;87.51;96022.09;2048382;29;20047;-41
2022/08/04 04:26:55;;;;;;;6.55;3.95;;;;;;;15.30;88.17;96021.16;2058968;28;20116;-41
2022/08/04 04:28:26;;;;;;;8.27;4.32;;;;;;;15.32;87.75;96025.38;2063944;28;20045;-40
2022/08/04 04:29:45;;;;;;;6.95;4.50;;;;;;;15.36;87.79;96020.75;2056652;28;20043;-42
2022/08/04 04:31:14;;;;;;;8.20;4.82;;;;;;;15.40;87.25;96019.63;2042154;29;20036;-42
2022/08/04 04:32:43;;;;;;;7.93;4.38;;;;;;;15.46;86.86;96019.22;2047280;28;20054;-41
2022/08/04 04:34:13;;;;;;;7.32;3.83;;;;;;;15.53;86.54;96022.25;2060281;28;20416;-41
2022/08/04 04:35:31;;;;;;;8.63;4.15;;;;;;;15.59;87.08;96016.63;2055551;28;20050;-42
2022/08/04 04:37:04;;;;;;;7.90;4.10;;;;;;;15.61;86.42;96007.72;2048557;28;20047;-41
2022/08/04 04:38:45;;;;;;;9.23;4.20;;;;;;;15.69;85.87;96011.63;2052322;28;20051;-39
2022/08/04 04:39:54;;;;;;;7.68;4.35;;;;;;;15.74;86.10;96017.41;2045793;29;20039;-40
2022/08/04 04:41:10;;;;;;;5.88;4.10;;;;;;;15.81;85.35;96016.03;2043605;29;20055;-42
2022/08/04 04:42:23;;;;;;;6.50;4.30;;;;;;;15.82;85.34;96013.34;2052337;28;20046;-41
2022/08/04 04:43:47;;;;;;;7.43;3.88;;;;;;;15.82;85.80;96015.97;2054600;28;20047;-41
2022/08/04 04:44:54;;;;;;;10.40;3.90;;;;;;;15.86;85.34;96024.44;2048495;29;20498;-43
2022/08/04 04:46:05;;;;;;;5.72;3.80;;;;;;;15.91;83.99;96029.38;2048405;29;20054;-39
2022/08/04 04:47:25;;;;;;;7.90;4.00;;;;;;;15.97;84.68;96027.16;2048441;28;20050;-41
2022/08/04 04:48:39;;;;;;;8.30;3.95;;;;;;;16.04;84.82;96017.13;2048165;29;20402;-43
2022/08/04 04:49:48;;;;;;;8.30;3.95;;;;;;;16.11;84.29;96020.97;2044720;29;20036;-44
2022/08/04 04:51:04;;;;;;;5.65;3.88;;;;;;;16.16;84.42;96015.41;2048972;28;20556;-41
2022/08/04 04:52:05;;;;;;;9.50;4.57;;;;;;;16.16;85.25;96018.03;2056240;28;20082;-41
2022/08/04 04:53:19;;;;;;;9.35;3.97;;;;;;;16.20;84.77;96022.09;2056648;28;20047;-44
2022/08/04 04:54:34;;;;;;;10.57;3.95;;;;;;;16.28;84.93;96023.28;2055763;28;20055;-40
2022/08/04 04:55:49;;;;;;;5.47;3.80;;;;;;;16.33;85.04;96036.03;2041581;29;20039;-44
2022/08/04 04:56:58;;;;;;;8.73;4.50;;;;;;;16.38;84.57;96031.31;2051620;28;20055;-40
2022/08/04 04:58:00;;;;;;;5.30;3.83;;;;;;;16.49;84.60;96030.56;2063485;28;20408;-39
2022/08/04 04:59:02;;;;;;;7.00;4.72;;;;;;;16.52;82.42;96039.06;2054853;28;20494;-44
2022/08/04 05:00:07;;;;;;;5.93;3.80;;;;;;;16.61;81.20;96031.50;2039959;29;20434;-44
2022/08/04 05:01:25;;;;;;;9.05;4.18;;;;;;;16.69;80.85;96034.41;2047637;29;20059;-40
2022/08/04 05:02:43;;;;;;;7.47;3.80;;;;;;;16.76;80.14;96035.66;2047642;29;20043;-41
2022/08/04 05:04:24;;;;;;;6.28;3.90;;;;;;;16.86;79.80;96031.44;2042547;29;20060;-42
2022/08/04 05:05:54;;;;;;;7.60;4.10;;;;;;;16.95;79.13;96029.97;2061084;28;20038;-41
2022/08/04 05:07:15;;;;;;;6.80;3.60;;;;;;;17.05;78.17;96035.38;2052242;28;20035;-41
2022/08/04 05:08:27;;;;;;;6.47;3.92;;;;;;;17.12;77.65;96031.34;2049121;29;20046;-41
2022/08/04 05:10:03;;;;;;;7.82;4.30;;;;;;;17.19;77.80;96033.44;2056779;28;20086;-42
2022/08/04 05:11:12;;;;;;;7.60;3.80;;;;;;;17.25;77.93;96036.56;2052838;28;20073;-42
2022/08/04 05:12:39;;;;;;;8.15;3.58;;;;;;;17.30;77.12;96042.31;2048798;29;20043;-44
2022/08/04 05:13:55;;;;;;;7.55;4.43;;;;;;;17.37;76.50;96044.38;2045074;29;20409;-40
2022/08/04 05:14:56;;;;;;;8.05;4.18;;;;;;;17.44;76.45;96042.13;2050960;28;20054;-42
2022/08/04 05:16:15;;;;;;;6.28;3.60;;;;;;;17.49;76.02;96040.00;2049490;29;20140;-41
2022/08/04 05:17:24;;;;;;;8.07;3.72;;;;;;;17.60;75.86;96040.03;2036820;29;20551;-42
2022/08/04 05:18:26;;;;;;;8.00;4.18;;;;;;;17.64;75.42;96041.50;2042607;29;20055;-41
2022/08/04 05:19:45;;;;;;;9.70;3.78;;;;;;;17.70;74.55;96042.81;2057186;28;20046;-43
2022/08/04 05:20:50;;;;;;;9.55;3.72;;;;;;;17.79;74.57;96042.16;2041793;29;20055;-41
2022/08/04 05:22:03;;;;;;;13.65;3.70;;;;;;;17.86;73.85;96042.53;2042508;29;20063;-40
2022/08/04 05:23:15;;;;;;;16.55;4.15;;;;;;;17.92;74.00;96041.22;2041776;29;20058;-43
2022/08/04 05:24:18;;;;;;;11.23;3.60;;;;;;;17.95;74.16;96039.19;2043369;29;20059;-43
2022/08/04 05:25:24;;;;;;;10.07;3.50;;;;;;;18.01;73.77;96036.09;2050486;28;20388;-42
2022/08/04 05:26:30;;;;;;;8.60;3.50;;;;;;;18.08;73.16;96039.09;2049073;29;20051;-41
2022/08/04 05:27:40;;;;;;;9.32;3.75;;;;;;;18.14;72.35;96032.53;2050081;28;20051;-42
2022/08/04 05:28:51;;;;;;;8.75;3.95;;;;;;;18.20;72.36;96032.06;2057122;28;20413;-41
2022/08/04 05:29:56;;;;;;;8.00;3.58;;;;;;;18.25;71.83;96038.63;2056809;28;20440;-42
2022/08/04 05:30:59;;;;;;;5.90;3.35;;;;;;;18.34;71.20;96033.66;2049064;29;20556;-42
2022/08/04 05:32:04;;;;;;;8.02;3.30;;;;;;;18.41;70.73;96032.19;2049291;29;20047;-40
2022/08/04 05:33:08;;;;;;;12.25;3.60;;;;;;;18.49;70.42;96040.31;2049995;28;20070;-41
2022/08/04 05:34:15;;;;;;;5.57;3.53;;;;;;;18.51;70.18;96030.53;2033710;29;20047;-39
2022/08/04 05:35:21;;;;;;;8.25;3.25;;;;;;;18.58;70.40;96033.50;2027448;29;20049;-41
2022/08/04 05:36:26;;;;;;;6.68;3.42;;;;;;;18.63;70.84;96032.19;2034531;29;20052;-45
2022/08/04 05:37:27;;;;;;;14.80;3.60;;;;;;;18.66;69.85;96029.31;2035250;29;20063;-41
2022/08/04 05:38:30;;;;;;;8.35;3.63;;;;;;;18.71;69.93;96035.06;2041314;29;20043;-42
2022/08/04 05:39:35;;;;;;;13.45;3.78;;;;;;;18.76;70.25;96034.72;2040691;29;20071;-42
2022/08/04 05:40:37;;;;;;;8.43;3.33;;;;;;;18.80;70.11;96030.88;2034367;29;20067;-43
2022/08/04 05:41:38;;;;;;;7.20;3.50;;;;;;;18.86;69.67;96034.81;2049246;29;20054;-41